createdAt,value
2019-03-27T00:01:56.778Z,102367.14
2019-03-27T00:04:27.552Z,102374.98
2019-03-27T00:06:58.707Z,102376.20
2019-03-27T00:09:29.625Z,102373.89
2019-03-27T00:12:00.629Z,102374.42
2019-03-27T00:14:31.745Z,102375.37
2019-03-27T00:17:07.620Z,102365.30
2019-03-27T00:19:38.481Z,102378.23
2019-03-27T00:22:09.279Z,102382.81
2019-03-27T00:24:40.223Z,102381.07
2019-03-27T00:27:11.124Z,102381.59
2019-03-27T00:29:42.333Z,102382.23
2019-03-27T00:32:13.032Z,102391.48
2019-03-27T00:34:43.903Z,102389.87
2019-03-27T00:37:14.778Z,102382.09
2019-03-27T00:39:45.766Z,102385.42
2019-03-27T00:42:16.669Z,102388.41
2019-03-27T00:44:48.078Z,102388.41
2019-03-27T00:47:18.951Z,102378.02
2019-03-27T00:49:49.863Z,102376.08
2019-03-27T00:52:20.714Z,102375.95
2019-03-27T00:54:51.450Z,102381.78
2019-03-27T00:57:22.350Z,102375.80
2019-03-27T00:59:53.066Z,102380.83
2019-03-27T01:02:23.806Z,102379.61
2019-03-27T01:04:54.562Z,102380.70
2019-03-27T01:07:25.283Z,102378.92
2019-03-27T01:09:56.097Z,102377.17
2019-03-27T01:12:26.862Z,102378.54
2019-03-27T01:14:57.635Z,102371.91
2019-03-27T01:17:28.391Z,102369.33
2019-03-27T01:19:59.168Z,102368.23
2019-03-27T01:22:29.956Z,102371.63
2019-03-27T01:25:00.701Z,102373.56
2019-03-27T01:27:31.424Z,102369.66
2019-03-27T01:30:02.233Z,102377.86
2019-03-27T01:32:32.979Z,102375.72
2019-03-27T01:35:04.366Z,102373.13
2019-03-27T01:37:35.114Z,102374.84
2019-03-27T01:40:06.496Z,102367.78
2019-03-27T01:42:37.199Z,102384.57
2019-03-27T01:45:09.103Z,102381.05
2019-03-27T01:47:39.814Z,102379.84
2019-03-27T01:50:10.618Z,102384.01
2019-03-27T01:52:41.412Z,102380.70
2019-03-27T01:55:13.820Z,102392.63
2019-03-27T01:57:44.622Z,102388.23
2019-03-27T02:00:16.429Z,102388.59
2019-03-27T02:02:47.189Z,102384.14
2019-03-27T02:05:17.931Z,102389.33
2019-03-27T02:07:48.736Z,102393.14
2019-03-27T02:10:19.638Z,102394.47
2019-03-27T02:12:50.421Z,102386.88
2019-03-27T02:15:21.382Z,102386.77
2019-03-27T02:17:52.308Z,102383.23
2019-03-27T02:20:23.125Z,102392.23
2019-03-27T02:22:53.858Z,102380.72
2019-03-27T02:25:24.637Z,102382.50
2019-03-27T02:27:55.459Z,102386.92
2019-03-27T02:30:26.179Z,102385.84
2019-03-27T02:32:56.892Z,102386.11
2019-03-27T02:35:27.596Z,102388.34
2019-03-27T02:37:58.579Z,102386.16
2019-03-27T02:40:29.391Z,102387.94
2019-03-27T02:43:00.871Z,102387.20
2019-03-27T02:45:31.605Z,102387.80
2019-03-27T02:48:02.687Z,102392.25
2019-03-27T02:50:33.442Z,102394.70
2019-03-27T02:53:04.626Z,102390.02
2019-03-27T02:55:38.369Z,102382.80
2019-03-27T02:58:09.165Z,102386.71
2019-03-27T03:00:40.266Z,102386.52
2019-03-27T03:03:11.002Z,102394.70
2019-03-27T03:05:41.747Z,102394.62
2019-03-27T03:08:12.731Z,102395.59
2019-03-27T03:10:45.893Z,102391.05
2019-03-27T03:13:16.128Z,102387.39
2019-03-27T03:15:47.227Z,102387.19
2019-03-27T03:18:18.210Z,102395.19
2019-03-27T03:20:48.942Z,102392.25
2019-03-27T03:23:19.863Z,102395.51
2019-03-27T03:25:50.603Z,102390.78
2019-03-27T03:28:21.367Z,102399.44
2019-03-27T03:30:52.066Z,102395.70
2019-03-27T03:33:23.078Z,102394.36
2019-03-27T03:35:53.854Z,102405.92
2019-03-27T03:38:24.830Z,102399.83
2019-03-27T03:40:55.535Z,102411.23
2019-03-27T03:43:26.326Z,102407.34
2019-03-27T03:45:57.491Z,102397.39
2019-03-27T03:48:28.245Z,102405.48
2019-03-27T03:51:01.898Z,102409.58
2019-03-27T03:53:35.398Z,102414.59
2019-03-27T03:56:06.194Z,102420.47
2019-03-27T03:58:40.439Z,102409.22
2019-03-27T04:01:13.032Z,102413.30
2019-03-27T04:03:47.299Z,102419.00
2019-03-27T04:06:18.057Z,102412.34
2019-03-27T04:08:48.938Z,102415.70
2019-03-27T04:11:19.928Z,102425.34
2019-03-27T04:13:50.743Z,102423.27
2019-03-27T04:16:22.365Z,102424.85
2019-03-27T04:18:53.111Z,102427.71
2019-03-27T04:21:26.975Z,102428.35
2019-03-27T04:23:56.832Z,102428.25
2019-03-27T04:26:28.031Z,102426.75
2019-03-27T04:28:58.759Z,102428.95
2019-03-27T04:31:29.465Z,102428.40
2019-03-27T04:34:00.194Z,102440.86
2019-03-27T04:36:30.908Z,102439.63
2019-03-27T04:39:01.600Z,102435.27
2019-03-27T04:41:32.784Z,102444.30
2019-03-27T04:44:04.294Z,102446.04
2019-03-27T04:46:35.050Z,102443.56
2019-03-27T04:49:07.775Z,102457.37
2019-03-27T04:51:38.687Z,102455.69
2019-03-27T04:54:09.394Z,102448.89
2019-03-27T04:56:40.076Z,102453.75
2019-03-27T04:59:10.784Z,102451.27
2019-03-27T05:01:41.697Z,102451.66
2019-03-27T05:04:12.415Z,102451.36
2019-03-27T05:06:43.240Z,102456.83
2019-03-27T05:09:13.982Z,102453.59
2019-03-27T05:11:44.762Z,102451.98
2019-03-27T05:14:15.453Z,102454.09
2019-03-27T05:16:46.442Z,102464.80
2019-03-27T05:19:17.399Z,102463.63
2019-03-27T05:21:48.097Z,102474.30
2019-03-27T05:24:19.044Z,102477.87
2019-03-27T05:26:50.170Z,102483.04
2019-03-27T05:29:21.110Z,102480.67
2019-03-27T05:31:52.117Z,102480.95
2019-03-27T05:34:23.138Z,102474.98
2019-03-27T05:36:54.270Z,102489.66
2019-03-27T05:39:24.993Z,102489.48
2019-03-27T05:41:55.915Z,102482.65
2019-03-27T05:44:26.624Z,102492.91
2019-03-27T05:46:57.330Z,102488.62
2019-03-27T05:49:28.066Z,102492.41
2019-03-27T05:51:58.789Z,102494.47
2019-03-27T05:54:29.497Z,102493.51
2019-03-27T05:57:00.194Z,102497.00
2019-03-27T05:59:31.112Z,102497.31
2019-03-27T06:02:01.801Z,102506.95
2019-03-27T06:04:32.536Z,102509.80
2019-03-27T06:07:03.316Z,102515.80
2019-03-27T06:09:34.268Z,102514.75
2019-03-27T06:12:04.995Z,102512.59
2019-03-27T06:14:35.793Z,102507.16
2019-03-27T06:17:06.612Z,102520.16
2019-03-27T06:19:37.534Z,102526.73
2019-03-27T06:22:08.452Z,102532.47
2019-03-27T06:24:39.156Z,102530.86
2019-03-27T06:27:09.904Z,102532.96
2019-03-27T06:29:40.595Z,102522.66
2019-03-27T06:32:11.952Z,102521.97
2019-03-27T06:34:42.749Z,102531.05
2019-03-27T06:37:13.740Z,102533.89
2019-03-27T06:39:44.751Z,102539.39
2019-03-27T06:42:15.471Z,102533.12
2019-03-27T06:44:46.195Z,102533.84
2019-03-27T06:47:17.567Z,102526.45
2019-03-27T06:49:48.543Z,102528.73
2019-03-27T06:52:19.261Z,102538.09
2019-03-27T06:54:50.033Z,102536.87
2019-03-27T06:57:20.742Z,102533.21
2019-03-27T06:59:51.916Z,102537.40
2019-03-27T07:02:22.716Z,102531.25
2019-03-27T07:04:53.879Z,102534.58
2019-03-27T07:07:24.589Z,102541.28
2019-03-27T07:09:55.280Z,102534.73
2019-03-27T07:12:26.258Z,102533.62
2019-03-27T07:14:57.275Z,102533.82
2019-03-27T07:17:28.002Z,102539.13
2019-03-27T07:19:58.815Z,102533.70
2019-03-27T07:22:29.820Z,102533.48
2019-03-27T07:25:00.768Z,102540.67
2019-03-27T07:27:31.470Z,102541.89
2019-03-27T07:30:02.451Z,102541.28
2019-03-27T07:32:33.178Z,102545.41
2019-03-27T07:35:04.003Z,102550.61
2019-03-27T07:37:34.712Z,102551.91
2019-03-27T07:40:06.274Z,102544.69
2019-03-27T07:42:36.971Z,102544.42
2019-03-27T07:45:08.296Z,102556.18
2019-03-27T07:47:47.970Z,102553.84
2019-03-27T07:50:17.674Z,102553.29
2019-03-27T07:52:48.470Z,102549.80
2019-03-27T07:55:20.019Z,102558.09
2019-03-27T07:57:50.877Z,102565.78
2019-03-27T08:00:24.362Z,102567.66
2019-03-27T08:02:55.363Z,102568.72
2019-03-27T08:05:26.328Z,102568.81
2019-03-27T08:07:57.090Z,102571.30
2019-03-27T08:10:27.928Z,102573.53
2019-03-27T08:12:58.929Z,102580.20
2019-03-27T08:15:29.654Z,102580.33
2019-03-27T08:18:00.800Z,102582.98
2019-03-27T08:20:31.599Z,102576.37
2019-03-27T08:23:02.439Z,102573.17
2019-03-27T08:25:33.543Z,102573.80
2019-03-27T08:28:04.408Z,102573.33
2019-03-27T08:30:35.590Z,102577.56
2019-03-27T08:33:07.016Z,102579.73
2019-03-27T08:35:38.343Z,102579.24
2019-03-27T08:38:09.272Z,102585.76
2019-03-27T08:40:40.519Z,102586.05
2019-03-27T08:43:21.305Z,102583.47
2019-03-27T08:45:44.083Z,102585.46
2019-03-27T08:48:15.298Z,102576.11
2019-03-27T08:50:46.268Z,102583.91
2019-03-27T08:53:17.106Z,102589.39
2019-03-27T08:55:47.955Z,102588.19
2019-03-27T08:58:19.124Z,102588.55
2019-03-27T09:00:55.752Z,102588.89
2019-03-27T09:03:26.502Z,102581.83
2019-03-27T09:05:57.468Z,102584.96
2019-03-27T09:08:28.310Z,102590.69
2019-03-27T09:10:59.186Z,102580.21
2019-03-27T09:13:30.198Z,102588.52
2019-03-27T09:16:01.207Z,102597.17
2019-03-27T09:18:32.719Z,102599.81
2019-03-27T09:21:03.527Z,102591.43
2019-03-27T09:23:34.356Z,102586.84
2019-03-27T09:26:05.173Z,102586.30
2019-03-27T09:28:36.222Z,102579.73
2019-03-27T09:31:07.162Z,102588.59
2019-03-27T09:33:38.042Z,102587.94
2019-03-27T09:36:08.983Z,102582.86
2019-03-27T09:38:39.717Z,102584.91
2019-03-27T09:41:10.806Z,102581.63
2019-03-27T09:43:41.577Z,102586.59
2019-03-27T09:46:12.394Z,102584.21
2019-03-27T09:48:43.476Z,102587.57
2019-03-27T09:51:14.312Z,102594.66
2019-03-27T09:53:45.340Z,102596.52
2019-03-27T09:56:19.447Z,102600.86
2019-03-27T09:58:48.545Z,102593.91
2019-03-27T10:01:20.035Z,102594.52
2019-03-27T10:03:50.832Z,102599.25
2019-03-27T10:06:21.899Z,102595.34
2019-03-27T10:08:52.957Z,102586.84
2019-03-27T10:11:23.975Z,102587.83
2019-03-27T10:13:54.866Z,102595.69
2019-03-27T10:16:25.682Z,102592.05
2019-03-27T10:18:56.490Z,102592.53
2019-03-27T10:21:27.485Z,102599.86
2019-03-27T10:23:58.181Z,102597.16
2019-03-27T10:26:29.001Z,102596.50
2019-03-27T10:28:59.952Z,102598.69
2019-03-27T10:31:30.694Z,102600.09
2019-03-27T10:34:01.431Z,102603.33
2019-03-27T10:36:32.167Z,102600.44
2019-03-27T10:39:04.271Z,102596.52
2019-03-27T10:41:35.006Z,102598.28
2019-03-27T10:44:06.242Z,102590.56
2019-03-27T10:46:37.433Z,102600.48
2019-03-27T10:49:08.402Z,102599.05
2019-03-27T10:51:39.140Z,102593.93
2019-03-27T10:54:09.880Z,102595.52
2019-03-27T10:56:40.612Z,102594.95
2019-03-27T10:59:11.570Z,102602.59
2019-03-27T11:01:42.843Z,102600.58
2019-03-27T11:04:17.463Z,102604.41
2019-03-27T11:06:48.906Z,102605.16
2019-03-27T11:09:19.864Z,102599.98
2019-03-27T11:11:50.603Z,102603.89
2019-03-27T11:14:21.431Z,102596.80
2019-03-27T11:16:52.324Z,102594.78
2019-03-27T11:19:23.300Z,102598.52
2019-03-27T11:21:54.053Z,102600.22
2019-03-27T11:24:24.802Z,102600.99
2019-03-27T11:26:55.666Z,102589.02
2019-03-27T11:29:26.417Z,102591.14
2019-03-27T11:31:57.182Z,102593.87
2019-03-27T11:34:27.906Z,102592.67
2019-03-27T11:36:58.953Z,102591.10
2019-03-27T11:39:30.056Z,102584.38
2019-03-27T11:42:01.255Z,102588.28
2019-03-27T11:44:32.206Z,102586.14
2019-03-27T11:47:02.972Z,102589.47
2019-03-27T11:49:33.725Z,102588.41
2019-03-27T11:52:04.611Z,102591.20
2019-03-27T11:54:38.267Z,102592.30
2019-03-27T11:57:09.072Z,102584.01
2019-03-27T11:59:52.920Z,102575.41
2019-03-27T12:02:12.403Z,102582.13
2019-03-27T12:04:43.924Z,102571.19
2019-03-27T12:07:15.223Z,102564.10
2019-03-27T12:09:46.084Z,102564.60
2019-03-27T12:12:16.948Z,102559.82
2019-03-27T12:14:47.742Z,102568.06
2019-03-27T12:17:18.566Z,102562.19
2019-03-27T12:19:49.278Z,102571.00
2019-03-27T12:22:20.155Z,102574.55
2019-03-27T12:24:50.993Z,102572.89
2019-03-27T12:27:21.869Z,102576.42
2019-03-27T12:29:52.695Z,102577.23
2019-03-27T12:32:25.095Z,102579.86
2019-03-27T12:34:56.025Z,102577.12
2019-03-27T12:37:26.763Z,102582.39
2019-03-27T12:39:57.485Z,102581.36
2019-03-27T12:42:28.271Z,102581.81
2019-03-27T12:45:01.624Z,102576.16
2019-03-27T12:47:31.546Z,102580.44
2019-03-27T12:50:02.377Z,102576.41
2019-03-27T12:52:33.696Z,102571.14
2019-03-27T12:55:04.946Z,102579.73
2019-03-27T12:57:35.911Z,102575.92
2019-03-27T13:00:08.509Z,102573.84
2019-03-27T13:02:39.534Z,102568.66
2019-03-27T13:05:10.649Z,102570.30
2019-03-27T13:07:50.027Z,102574.10
2019-03-27T13:10:14.507Z,102571.80
2019-03-27T13:12:45.256Z,102576.06
2019-03-27T13:15:16.340Z,102576.45
2019-03-27T13:17:47.581Z,102576.61
2019-03-27T13:20:19.825Z,102578.59
2019-03-27T13:22:50.899Z,102583.45
2019-03-27T13:25:21.787Z,102582.21
2019-03-27T13:27:52.779Z,102582.16
2019-03-27T13:30:23.875Z,102580.88
2019-03-27T13:32:54.860Z,102582.08
2019-03-27T13:35:25.713Z,102584.78
2019-03-27T13:37:56.741Z,102582.41
2019-03-27T13:40:27.557Z,102588.05
2019-03-27T13:42:58.528Z,102580.66
2019-03-27T13:45:29.459Z,102579.78
2019-03-27T13:48:00.391Z,102576.22
2019-03-27T13:50:31.183Z,102580.61
2019-03-27T13:53:01.934Z,102577.31
2019-03-27T13:55:35.164Z,102578.74
2019-03-27T13:58:05.481Z,102579.46
2019-03-27T14:00:36.279Z,102588.81
2019-03-27T14:03:07.072Z,102578.81
2019-03-27T14:05:37.826Z,102576.29
2019-03-27T14:08:08.643Z,102582.36
2019-03-27T14:10:39.841Z,102579.88
2019-03-27T14:13:11.077Z,102578.54
2019-03-27T14:15:42.291Z,102584.69
2019-03-27T14:18:13.057Z,102582.68
2019-03-27T14:20:43.967Z,102579.37
2019-03-27T14:23:14.988Z,102584.74
2019-03-27T14:25:46.000Z,102579.58
2019-03-27T14:28:16.750Z,102577.48
2019-03-27T14:30:58.671Z,102574.80
2019-03-27T14:33:29.521Z,102577.52
2019-03-27T14:36:00.481Z,102571.10
2019-03-27T14:38:31.387Z,102562.65
2019-03-27T14:41:02.282Z,102557.36
2019-03-27T14:43:33.329Z,102561.60
2019-03-27T14:46:04.458Z,102554.93
2019-03-27T14:48:35.475Z,102557.62
2019-03-27T14:51:06.768Z,102547.84
2019-03-27T14:53:38.033Z,102548.48
2019-03-27T14:56:09.974Z,102538.62
2019-03-27T14:58:41.176Z,102534.77
2019-03-27T15:01:12.199Z,102529.89
2019-03-27T15:03:43.351Z,102522.87
2019-03-27T15:06:14.207Z,102522.70
2019-03-27T15:08:46.002Z,102521.72
2019-03-27T15:11:17.851Z,102518.16
2019-03-27T15:13:49.431Z,102525.86
2019-03-27T15:16:20.678Z,102520.25
2019-03-27T15:18:52.741Z,102517.63
2019-03-27T15:21:24.254Z,102518.52
2019-03-27T15:23:56.027Z,102519.90
2019-03-27T15:26:28.059Z,102521.05
2019-03-27T15:28:59.498Z,102513.50
2019-03-27T15:31:30.758Z,102511.42
2019-03-27T15:34:02.437Z,102503.34
2019-03-27T15:36:34.178Z,102506.07
2019-03-27T15:39:07.794Z,102507.30
2019-03-27T15:41:39.465Z,102502.37
2019-03-27T15:44:11.005Z,102497.80
2019-03-27T15:46:42.476Z,102504.36
2019-03-27T15:49:13.895Z,102503.91
2019-03-27T15:51:46.280Z,102499.30
2019-03-27T15:54:17.817Z,102493.92
2019-03-27T15:56:49.266Z,102501.09
2019-03-27T15:59:20.409Z,102503.05
2019-03-27T16:01:51.653Z,102495.92
2019-03-27T16:04:22.838Z,102502.05
2019-03-27T16:06:54.106Z,102501.41
2019-03-27T16:09:25.305Z,102506.05
2019-03-27T16:12:15.397Z,102513.17
2019-03-27T16:14:53.872Z,102519.48
2019-03-27T16:17:25.964Z,102517.06
2019-03-27T16:19:57.237Z,102515.09
2019-03-27T16:22:28.698Z,102518.30
2019-03-27T16:25:00.185Z,102524.20
2019-03-27T16:27:31.414Z,102526.20
2019-03-27T16:30:02.808Z,102524.84
2019-03-27T16:32:34.339Z,102524.17
2019-03-27T16:35:07.461Z,102523.02
2019-03-27T16:37:39.638Z,102525.77
2019-03-27T16:40:12.288Z,102524.95
2019-03-27T16:42:43.702Z,102527.23
2019-03-27T16:45:15.417Z,102524.28
2019-03-27T16:47:46.751Z,102525.63
2019-03-27T16:50:18.444Z,102530.02
2019-03-27T16:52:58.448Z,102527.43
2019-03-27T16:55:23.422Z,102534.31
2019-03-27T16:57:55.738Z,102537.51
2019-03-27T17:00:27.418Z,102538.80
2019-03-27T17:02:58.848Z,102535.86
2019-03-27T17:05:30.209Z,102539.14
2019-03-27T17:08:01.471Z,102540.67
2019-03-27T17:10:32.839Z,102533.58
2019-03-27T17:13:04.334Z,102542.81
2019-03-27T17:15:35.699Z,102543.95
2019-03-27T17:18:07.428Z,102551.81
2019-03-27T17:20:39.894Z,102550.14
2019-03-27T17:23:17.945Z,102549.83
2019-03-27T17:25:45.202Z,102549.34
2019-03-27T17:28:16.934Z,102547.20
2019-03-27T17:30:48.304Z,102551.16
2019-03-27T17:33:20.058Z,102552.39
2019-03-27T17:35:51.623Z,102548.00
2019-03-27T17:38:23.047Z,102556.45
2019-03-27T17:40:55.846Z,102550.18
2019-03-27T17:43:26.800Z,102557.43
2019-03-27T17:45:58.165Z,102557.64
2019-03-27T17:48:29.313Z,102559.69
2019-03-27T17:51:00.811Z,102559.88
2019-03-27T17:53:32.627Z,102557.08
2019-03-27T17:56:04.349Z,102561.58
2019-03-27T17:58:35.183Z,102560.42
2019-03-27T18:01:06.344Z,102560.91
2019-03-27T18:03:37.594Z,102567.66
2019-03-27T18:06:09.167Z,102569.25
2019-03-27T18:08:40.976Z,102580.24
2019-03-27T18:11:11.969Z,102582.42
2019-03-27T18:13:42.878Z,102577.26
2019-03-27T18:16:17.154Z,102580.80
2019-03-27T18:18:51.290Z,102593.58
2019-03-27T18:21:23.412Z,102581.55
2019-03-27T18:23:55.554Z,102583.31
2019-03-27T18:26:27.224Z,102588.12
2019-03-27T18:28:58.395Z,102587.58
2019-03-27T18:31:31.138Z,102592.91
2019-03-27T18:34:02.606Z,102592.41
2019-03-27T18:36:33.919Z,102592.84
2019-03-27T18:39:08.245Z,102596.77
2019-03-27T18:41:41.080Z,102596.98
2019-03-27T18:44:12.744Z,102597.19
2019-03-27T18:46:44.050Z,102604.28
2019-03-27T18:49:14.991Z,102601.53
2019-03-27T18:51:46.501Z,102608.74
2019-03-27T18:54:17.285Z,102605.84
2019-03-27T18:56:48.219Z,102615.34
2019-03-27T18:59:19.021Z,102607.20
2019-03-27T19:01:50.188Z,102606.26
2019-03-27T19:04:21.088Z,102610.19
2019-03-27T19:06:52.058Z,102605.18
2019-03-27T19:09:23.362Z,102604.84
2019-03-27T19:11:54.862Z,102605.91
2019-03-27T19:14:25.756Z,102610.73
2019-03-27T19:16:56.736Z,102608.95
2019-03-27T19:19:27.984Z,102605.91
2019-03-27T19:21:59.068Z,102604.96
2019-03-27T19:24:30.133Z,102602.05
2019-03-27T19:27:01.514Z,102603.19
2019-03-27T19:29:32.894Z,102610.61
2019-03-27T19:32:04.085Z,102609.73
2019-03-27T19:34:35.147Z,102609.34
2019-03-27T19:37:06.308Z,102610.63
2019-03-27T19:39:37.328Z,102610.07
2019-03-27T19:42:08.638Z,102607.80
2019-03-27T19:44:39.611Z,102614.08
2019-03-27T19:47:10.624Z,102615.55
2019-03-27T19:49:42.118Z,102618.13
2019-03-27T19:52:13.489Z,102613.30
2019-03-27T19:54:44.612Z,102613.95
2019-03-27T19:57:15.969Z,102614.83
2019-03-27T19:59:47.046Z,102619.34
2019-03-27T20:02:17.762Z,102612.69
2019-03-27T20:04:49.111Z,102617.13
2019-03-27T20:07:19.838Z,102619.75
2019-03-27T20:09:51.167Z,102615.20
2019-03-27T20:12:22.606Z,102612.16
2019-03-27T20:14:53.561Z,102605.81
2019-03-27T20:17:24.701Z,102613.20
2019-03-27T20:19:55.495Z,102613.03
2019-03-27T20:22:27.200Z,102615.69
2019-03-27T20:24:57.985Z,102609.30
2019-03-27T20:27:28.823Z,102610.66
2019-03-27T20:29:59.873Z,102612.92
2019-03-27T20:32:31.041Z,102616.32
2019-03-27T20:35:02.353Z,102616.95
2019-03-27T20:37:34.109Z,102616.03
2019-03-27T20:40:06.302Z,102620.97
2019-03-27T20:42:37.715Z,102618.41
2019-03-27T20:45:09.751Z,102614.75
2019-03-27T20:47:41.026Z,102617.15
2019-03-27T20:50:12.343Z,102615.64
2019-03-27T20:52:43.325Z,102615.03
2019-03-27T20:55:14.645Z,102617.27
2019-03-27T20:57:45.476Z,102617.37
2019-03-27T21:00:17.239Z,102625.94
2019-03-27T21:02:48.399Z,102618.80
2019-03-27T21:05:20.131Z,102616.50
2019-03-27T21:07:51.697Z,102617.73
2019-03-27T21:10:22.622Z,102614.91
2019-03-27T21:12:53.773Z,102607.88
2019-03-27T21:15:24.688Z,102609.80
2019-03-27T21:17:55.705Z,102611.05
2019-03-27T21:20:26.699Z,102611.25
2019-03-27T21:22:58.223Z,102603.64
2019-03-27T21:25:29.183Z,102613.14
2019-03-27T21:28:00.232Z,102604.48
2019-03-27T21:30:31.559Z,102602.87
2019-03-27T21:33:02.631Z,102605.81
2019-03-27T21:35:33.584Z,102603.78
2019-03-27T21:38:04.694Z,102600.91
2019-03-27T21:40:35.842Z,102609.27
2019-03-27T21:43:06.760Z,102604.97
2019-03-27T21:45:38.990Z,102608.64
2019-03-27T21:48:10.825Z,102610.55
2019-03-27T21:50:42.056Z,102612.76
2019-03-27T21:53:14.333Z,102617.38
2019-03-27T21:55:45.430Z,102617.47
2019-03-27T21:58:16.537Z,102611.64
2019-03-27T22:00:47.917Z,102614.55
2019-03-27T22:03:18.950Z,102611.26
2019-03-27T22:05:50.053Z,102614.81
2019-03-27T22:08:21.161Z,102619.31
2019-03-27T22:10:52.324Z,102616.73
2019-03-27T22:13:24.451Z,102617.57
2019-03-27T22:15:55.207Z,102619.45
2019-03-27T22:18:26.121Z,102621.01
2019-03-27T22:20:56.815Z,102618.55
2019-03-27T22:23:29.179Z,102620.19
2019-03-27T22:26:00.636Z,102626.16
2019-03-27T22:28:31.598Z,102620.13
2019-03-27T22:31:02.282Z,102626.36
2019-03-27T22:33:33.664Z,102628.08
2019-03-27T22:36:04.526Z,102622.28
2019-03-27T22:38:36.663Z,102631.67
2019-03-27T22:41:07.537Z,102626.13
2019-03-27T22:43:38.707Z,102625.59
2019-03-27T22:46:11.612Z,102626.58
2019-03-27T22:48:42.813Z,102626.58
2019-03-27T22:51:13.518Z,102623.55
2019-03-27T22:53:46.316Z,102624.59
2019-03-27T22:56:17.093Z,102626.08
2019-03-27T22:58:47.907Z,102627.89
2019-03-27T23:01:21.234Z,102625.70
2019-03-27T23:03:52.878Z,102624.66
2019-03-27T23:06:23.582Z,102621.75
2019-03-27T23:08:55.111Z,102622.42
2019-03-27T23:11:26.956Z,102625.45
2019-03-27T23:13:58.846Z,102629.48
2019-03-27T23:16:30.751Z,102624.90
2019-03-27T23:19:02.124Z,102632.27
2019-03-27T23:21:33.809Z,102624.76
2019-03-27T23:24:06.976Z,102626.42
2019-03-27T23:26:39.196Z,102628.70
2019-03-27T23:29:10.195Z,102632.04
2019-03-27T23:31:42.225Z,102631.72
2019-03-27T23:34:14.705Z,102622.77
2019-03-27T23:36:46.564Z,102626.53
2019-03-27T23:39:18.047Z,102628.80
2019-03-27T23:41:49.906Z,102624.64
2019-03-27T23:44:20.851Z,102624.17
2019-03-27T23:46:51.583Z,102628.58
2019-03-27T23:49:23.216Z,102628.50
2019-03-27T23:51:54.100Z,102629.47
2019-03-27T23:54:25.093Z,102627.39
2019-03-27T23:56:55.768Z,102625.37
2019-03-27T23:59:26.503Z,102627.34
